createdAt,value
2018-08-07T00:00:08.138Z,8.17
2018-08-07T00:02:34.981Z,7.30
2018-08-07T00:05:01.809Z,8.67
2018-08-07T00:07:28.674Z,6.70
2018-08-07T00:09:55.510Z,7.67
2018-08-07T00:12:22.344Z,8.30
2018-08-07T00:14:49.167Z,7.97
2018-08-07T00:17:16.250Z,7.80
2018-08-07T00:19:43.064Z,7.40
2018-08-07T00:22:09.886Z,7.37
2018-08-07T00:24:36.729Z,7.17
2018-08-07T00:27:03.617Z,7.45
2018-08-07T00:29:30.463Z,9.27
2018-08-07T00:31:57.274Z,9.30
2018-08-07T00:34:24.100Z,7.10
2018-08-07T00:36:50.997Z,7.10
2018-08-07T00:39:17.820Z,7.77
2018-08-07T00:41:44.657Z,7.13
2018-08-07T00:44:11.488Z,7.57
2018-08-07T00:46:38.367Z,7.33
2018-08-07T00:49:05.191Z,7.45
2018-08-07T00:51:32.021Z,8.47
2018-08-07T00:53:58.846Z,7.70
2018-08-07T00:56:25.741Z,7.03
2018-08-07T00:58:52.563Z,8.03
2018-08-07T01:01:19.392Z,7.87
2018-08-07T01:03:46.200Z,8.83
2018-08-07T01:06:13.111Z,8.20
2018-08-07T01:08:39.963Z,7.33
2018-08-07T01:11:06.779Z,7.15
2018-08-07T01:13:33.602Z,7.93
2018-08-07T01:16:00.478Z,7.90
2018-08-07T01:18:27.305Z,7.92
2018-08-07T01:20:54.137Z,7.00
2018-08-07T01:23:20.974Z,7.33
2018-08-07T01:25:47.792Z,9.77
2018-08-07T01:28:14.618Z,8.37
2018-08-07T01:30:41.827Z,7.50
2018-08-07T01:33:08.576Z,8.30
2018-08-07T01:35:35.405Z,7.80
2018-08-07T01:38:02.254Z,8.07
2018-08-07T01:40:29.056Z,7.77
2018-08-07T01:42:55.880Z,7.90
2018-08-07T01:45:22.721Z,7.33
2018-08-07T01:47:49.965Z,7.22
2018-08-07T01:50:16.697Z,8.30
2018-08-07T01:52:43.535Z,7.35
2018-08-07T01:55:10.370Z,8.00
2018-08-07T01:57:37.435Z,7.50
2018-08-07T02:00:04.253Z,7.90
2018-08-07T02:02:31.088Z,7.07
2018-08-07T02:04:57.918Z,7.50
2018-08-07T02:07:24.795Z,7.70
2018-08-07T02:09:51.727Z,8.97
2018-08-07T02:12:18.557Z,7.80
2018-08-07T02:14:45.386Z,8.10
2018-08-07T02:17:12.792Z,8.17
2018-08-07T02:19:39.614Z,7.57
2018-08-07T02:22:06.418Z,9.27
2018-08-07T02:24:33.247Z,8.20
2018-08-07T02:27:00.151Z,8.77
2018-08-07T02:29:26.974Z,7.80
2018-08-07T02:31:53.791Z,6.87
2018-08-07T02:34:20.614Z,9.70
2018-08-07T02:36:47.524Z,8.30
2018-08-07T02:39:14.371Z,8.25
2018-08-07T02:41:41.185Z,7.73
2018-08-07T02:44:08.005Z,7.77
2018-08-07T02:46:34.899Z,11.40
2018-08-07T02:49:01.716Z,7.47
2018-08-07T02:51:28.538Z,7.90
2018-08-07T02:53:55.370Z,7.73
2018-08-07T02:56:22.281Z,8.40
2018-08-07T02:58:49.176Z,8.80
2018-08-07T03:01:15.999Z,8.65
2018-08-07T03:03:42.807Z,8.70
2018-08-07T03:06:09.638Z,8.65
2018-08-07T03:08:36.476Z,7.83
2018-08-07T03:11:03.293Z,8.50
2018-08-07T03:13:30.121Z,10.63
2018-08-07T03:15:56.941Z,8.73
2018-08-07T03:18:23.754Z,7.93
2018-08-07T03:20:50.590Z,8.57
2018-08-07T03:23:17.398Z,8.20
2018-08-07T03:25:44.237Z,7.77
2018-08-07T03:28:11.063Z,8.13
2018-08-07T03:30:37.873Z,9.10
2018-08-07T03:33:04.707Z,7.90
2018-08-07T03:35:31.531Z,8.40
2018-08-07T03:37:58.483Z,9.10
2018-08-07T03:40:25.305Z,8.60
2018-08-07T03:42:52.141Z,8.00
2018-08-07T03:45:18.963Z,8.90
2018-08-07T03:47:45.972Z,8.10
2018-08-07T03:50:12.808Z,8.27
2018-08-07T03:52:39.634Z,8.23
2018-08-07T03:55:06.475Z,8.50
2018-08-07T03:57:33.341Z,7.77
2018-08-07T04:00:00.176Z,8.57
2018-08-07T04:02:26.993Z,8.13
2018-08-07T04:04:53.835Z,8.33
2018-08-07T04:07:20.720Z,12.80
2018-08-07T04:09:47.546Z,13.17
2018-08-07T04:12:14.388Z,17.27
2018-08-07T04:14:41.230Z,16.57
2018-08-07T04:17:08.234Z,21.37
2018-08-07T04:19:35.093Z,14.63
2018-08-07T04:22:01.933Z,14.03
2018-08-07T04:24:28.776Z,17.60
2018-08-07T04:26:55.681Z,14.87
2018-08-07T04:29:22.505Z,15.83
2018-08-07T04:31:49.338Z,17.07
2018-08-07T04:34:16.176Z,14.70
2018-08-07T04:36:43.037Z,15.50
2018-08-07T04:39:09.857Z,19.93
2018-08-07T04:41:36.690Z,18.67
2018-08-07T04:44:03.599Z,16.03
2018-08-07T04:46:30.647Z,19.50
2018-08-07T04:48:57.475Z,16.03
2018-08-07T04:51:24.306Z,15.32
2018-08-07T04:53:51.142Z,14.93
2018-08-07T04:56:17.993Z,17.60
2018-08-07T04:58:44.815Z,19.97
2018-08-07T05:01:11.678Z,18.23
2018-08-07T05:03:38.504Z,17.87
2018-08-07T05:06:05.377Z,19.07
2018-08-07T05:08:32.209Z,17.70
2018-08-07T05:10:59.046Z,14.83
2018-08-07T05:13:25.872Z,16.82
2018-08-07T05:15:52.697Z,20.17
2018-08-07T05:18:19.541Z,18.17
2018-08-07T05:20:46.378Z,18.13
2018-08-07T05:23:13.232Z,22.17
2018-08-07T05:25:40.103Z,21.23
2018-08-07T05:28:06.938Z,19.73
2018-08-07T05:30:33.854Z,16.20
2018-08-07T05:33:00.691Z,15.57
2018-08-07T05:35:27.518Z,16.70
2018-08-07T05:37:54.520Z,21.50
2018-08-07T05:40:21.360Z,17.20
2018-08-07T05:42:48.221Z,18.45
2018-08-07T05:45:15.039Z,16.70
2018-08-07T05:47:41.884Z,17.10
2018-08-07T05:50:08.809Z,17.35
2018-08-07T05:52:35.614Z,17.98
2018-08-07T05:55:02.536Z,19.37
2018-08-07T05:57:29.476Z,18.00
2018-08-07T05:59:56.325Z,18.47
2018-08-07T06:02:23.155Z,17.97
2018-08-07T06:04:50.001Z,18.07
2018-08-07T06:07:17.061Z,20.13
2018-08-07T06:09:43.888Z,17.83
2018-08-07T06:12:10.738Z,19.30
2018-08-07T06:14:37.558Z,19.60
2018-08-07T06:17:04.459Z,22.63
2018-08-07T06:19:31.261Z,17.33
2018-08-07T06:21:58.099Z,16.73
2018-08-07T06:24:24.946Z,16.42
2018-08-07T06:26:52.813Z,16.20
2018-08-07T06:29:19.656Z,17.60
2018-08-07T06:31:46.491Z,22.70
2018-08-07T06:34:13.383Z,15.30
2018-08-07T06:36:40.411Z,30.63
2018-08-07T06:39:07.245Z,21.70
2018-08-07T06:41:34.099Z,19.20
2018-08-07T06:44:00.929Z,22.97
2018-08-07T06:46:27.767Z,19.87
2018-08-07T06:48:54.821Z,19.23
2018-08-07T06:51:21.658Z,17.50
2018-08-07T06:53:48.489Z,19.10
2018-08-07T06:56:15.331Z,17.00
2018-08-07T06:58:42.170Z,19.82
2018-08-07T07:01:09.009Z,19.77
2018-08-07T07:03:35.860Z,24.97
2018-08-07T07:06:02.803Z,23.20
2018-08-07T07:08:29.653Z,21.77
2018-08-07T07:10:56.473Z,19.73
2018-08-07T07:13:23.383Z,19.00
2018-08-07T07:15:50.298Z,16.33
2018-08-07T07:18:17.135Z,17.20
2018-08-07T07:20:44.029Z,17.73
2018-08-07T07:23:11.223Z,26.12
2018-08-07T07:25:38.355Z,56.60
2018-08-07T07:28:05.186Z,34.03
2018-08-07T07:30:32.054Z,20.23
2018-08-07T07:32:58.979Z,25.23
2018-08-07T07:35:26.088Z,23.30
2018-08-07T07:37:53.093Z,25.53
2018-08-07T07:40:20.048Z,29.97
2018-08-07T07:42:47.065Z,25.23
2018-08-07T07:45:13.886Z,24.27
2018-08-07T07:47:40.883Z,26.90
2018-08-07T07:50:07.727Z,23.30
2018-08-07T07:52:34.574Z,22.67
2018-08-07T07:55:01.415Z,18.07
2018-08-07T07:57:28.258Z,19.95
2018-08-07T07:59:55.098Z,15.65
2018-08-07T08:02:22.233Z,20.12
2018-08-07T08:04:49.057Z,16.93
2018-08-07T08:07:16.036Z,18.20
2018-08-07T08:09:42.862Z,26.80
2018-08-07T08:12:09.691Z,20.67
2018-08-07T08:14:36.530Z,17.70
2018-08-07T08:17:03.410Z,16.43
2018-08-07T08:19:30.510Z,22.13
2018-08-07T08:21:57.320Z,25.83
2018-08-07T08:24:24.176Z,26.30
2018-08-07T08:26:51.191Z,24.03
2018-08-07T08:29:18.254Z,21.03
2018-08-07T08:31:45.002Z,20.90
2018-08-07T08:34:11.869Z,19.90
2018-08-07T08:36:39.005Z,17.70
2018-08-07T08:39:05.911Z,22.53
2018-08-07T08:41:32.727Z,17.03
2018-08-07T08:43:59.553Z,19.57
2018-08-07T08:46:26.550Z,19.73
2018-08-07T08:48:53.385Z,33.57
2018-08-07T08:51:20.346Z,17.13
2018-08-07T08:53:47.235Z,18.30
2018-08-07T08:56:14.187Z,21.80
2018-08-07T08:58:41.062Z,16.30
2018-08-07T09:01:08.003Z,19.13
2018-08-07T09:03:34.911Z,16.00
2018-08-07T09:06:02.156Z,15.00
2018-08-07T09:08:29.199Z,16.60
2018-08-07T09:10:56.268Z,16.80
2018-08-07T09:13:23.094Z,17.10
2018-08-07T09:15:49.915Z,16.00
2018-08-07T09:18:16.749Z,14.60
2018-08-07T09:20:43.583Z,14.47
2018-08-07T09:23:10.431Z,22.05
2018-08-07T09:25:37.389Z,16.90
2018-08-07T09:28:04.117Z,13.67
2018-08-07T09:30:30.990Z,13.97
2018-08-07T09:32:57.885Z,12.50
2018-08-07T09:35:24.659Z,12.63
2018-08-07T09:37:51.687Z,19.83
2018-08-07T09:40:18.507Z,14.40
2018-08-07T09:42:45.341Z,15.10
2018-08-07T09:45:12.178Z,15.07
2018-08-07T09:47:39.539Z,15.67
2018-08-07T09:50:06.348Z,13.13
2018-08-07T09:52:33.250Z,13.53
2018-08-07T09:55:00.062Z,12.03
2018-08-07T09:57:27.030Z,14.37
2018-08-07T09:59:53.857Z,14.63
2018-08-07T10:02:20.851Z,10.83
2018-08-07T10:04:47.646Z,13.83
2018-08-07T10:07:14.619Z,14.05
2018-08-07T10:09:41.436Z,14.90
2018-08-07T10:12:08.287Z,12.10
2018-08-07T10:14:35.129Z,12.23
2018-08-07T10:17:02.193Z,13.83
2018-08-07T10:19:29.022Z,11.33
2018-08-07T10:21:55.855Z,13.03
2018-08-07T10:24:22.684Z,11.83
2018-08-07T10:26:49.571Z,11.40
2018-08-07T10:29:16.397Z,12.60
2018-08-07T10:31:43.221Z,12.10
2018-08-07T10:34:10.083Z,12.20
2018-08-07T10:36:36.935Z,11.05
2018-08-07T10:39:03.754Z,13.55
2018-08-07T10:41:30.590Z,10.60
2018-08-07T10:43:57.650Z,11.03
2018-08-07T10:46:24.351Z,12.80
2018-08-07T10:48:51.130Z,13.33
2018-08-07T10:51:18.128Z,14.77
2018-08-07T10:53:45.402Z,14.67
2018-08-07T10:56:12.337Z,12.63
2018-08-07T10:58:39.242Z,11.57
2018-08-07T11:01:06.212Z,10.93
2018-08-07T11:03:33.092Z,12.73
2018-08-07T11:06:00.371Z,12.93
2018-08-07T11:08:27.453Z,10.47
2018-08-07T11:10:54.336Z,10.30
2018-08-07T11:13:21.230Z,10.13
2018-08-07T11:15:48.170Z,12.53
2018-08-07T11:18:15.075Z,10.68
2018-08-07T11:20:41.980Z,10.15
2018-08-07T11:23:08.904Z,10.30
2018-08-07T11:25:35.745Z,20.15
2018-08-07T11:28:03.046Z,12.67
2018-08-07T11:30:29.790Z,15.88
2018-08-07T11:32:56.634Z,21.07
2018-08-07T11:35:23.582Z,19.32
2018-08-07T11:37:50.519Z,11.60
2018-08-07T11:40:17.408Z,15.85
2018-08-07T11:42:44.288Z,12.30
2018-08-07T11:45:11.621Z,12.93
2018-08-07T11:47:38.699Z,12.28
2018-08-07T11:50:05.752Z,22.40
2018-08-07T11:52:32.609Z,13.23
2018-08-07T11:54:59.483Z,20.23
2018-08-07T11:57:26.550Z,11.80
2018-08-07T11:59:53.388Z,12.27
2018-08-07T12:02:20.586Z,15.30
2018-08-07T12:04:47.442Z,16.47
2018-08-07T12:07:14.419Z,13.80
2018-08-07T12:09:41.238Z,9.70
2018-08-07T12:12:08.064Z,14.23
2018-08-07T12:14:34.888Z,9.25
2018-08-07T12:17:01.807Z,8.60
2018-08-07T12:19:28.632Z,9.75
2018-08-07T12:21:55.459Z,8.90
2018-08-07T12:24:23.307Z,8.23
2018-08-07T12:26:50.193Z,12.23
2018-08-07T12:29:17.036Z,15.87
2018-08-07T12:31:43.865Z,7.87
2018-08-07T12:34:10.726Z,6.37
2018-08-07T12:36:37.759Z,7.10
2018-08-07T12:39:04.590Z,7.00
2018-08-07T12:41:31.442Z,8.20
2018-08-07T12:43:58.262Z,6.87
2018-08-07T12:46:25.198Z,8.73
2018-08-07T12:48:52.108Z,8.10
2018-08-07T12:51:18.913Z,6.50
2018-08-07T12:53:45.759Z,13.73
2018-08-07T12:56:14.770Z,13.93
2018-08-07T12:58:41.594Z,8.43
2018-08-07T13:01:08.416Z,6.83
2018-08-07T13:03:35.235Z,11.80
2018-08-07T13:06:02.126Z,12.77
2018-08-07T13:08:28.946Z,10.77
2018-08-07T13:10:55.785Z,14.83
2018-08-07T13:13:22.616Z,10.60
2018-08-07T13:15:49.451Z,12.33
2018-08-07T13:18:16.268Z,9.53
2018-08-07T13:20:43.109Z,8.33
2018-08-07T13:23:09.936Z,9.97
2018-08-07T13:25:36.770Z,8.63
2018-08-07T13:28:03.609Z,19.93
2018-08-07T13:30:30.454Z,12.70
2018-08-07T13:32:57.288Z,9.03
2018-08-07T13:35:24.115Z,10.85
2018-08-07T13:37:51.096Z,13.47
2018-08-07T13:40:17.927Z,11.53
2018-08-07T13:42:44.756Z,7.50
2018-08-07T13:45:11.573Z,7.40
2018-08-07T13:47:38.458Z,8.00
2018-08-07T13:50:05.412Z,9.43
2018-08-07T13:52:32.248Z,9.07
2018-08-07T13:54:59.075Z,10.90
2018-08-07T13:57:26.034Z,10.90
2018-08-07T13:59:52.862Z,23.90
2018-08-07T14:02:19.801Z,12.00
2018-08-07T14:04:46.651Z,8.27
2018-08-07T14:07:13.628Z,10.13
2018-08-07T14:09:40.456Z,14.70
2018-08-07T14:12:07.282Z,13.30
2018-08-07T14:14:34.107Z,13.55
2018-08-07T14:17:01.020Z,10.23
2018-08-07T14:19:27.831Z,7.07
2018-08-07T14:21:54.655Z,7.23
2018-08-07T14:24:21.476Z,9.07
2018-08-07T14:26:48.358Z,6.90
2018-08-07T14:29:15.187Z,13.13
2018-08-07T14:31:42.090Z,9.73
2018-08-07T14:34:08.854Z,9.30
2018-08-07T14:36:35.836Z,12.82
2018-08-07T14:39:02.566Z,16.05
2018-08-07T14:41:29.421Z,10.95
2018-08-07T14:43:56.241Z,5.97
2018-08-07T14:46:23.104Z,16.77
2018-08-07T14:48:49.925Z,12.53
2018-08-07T14:51:16.786Z,18.93
2018-08-07T14:53:43.628Z,10.47
2018-08-07T14:56:10.478Z,6.40
2018-08-07T14:58:37.307Z,7.90
2018-08-07T15:01:04.134Z,8.38
2018-08-07T15:03:30.960Z,7.03
2018-08-07T15:05:57.850Z,9.00
2018-08-07T15:08:24.677Z,14.80
2018-08-07T15:10:51.503Z,10.63
2018-08-07T15:13:18.330Z,6.90
2018-08-07T15:18:25.464Z,6.23
2018-08-07T15:20:52.406Z,7.85
2018-08-07T15:23:19.128Z,8.08
2018-08-07T15:25:45.965Z,7.87
2018-08-07T15:28:12.792Z,6.83
2018-08-07T15:30:39.626Z,8.10
2018-08-07T15:33:06.463Z,8.30
2018-08-07T15:35:33.301Z,13.20
2018-08-07T15:38:00.132Z,28.47
2018-08-07T15:40:26.958Z,23.27
2018-08-07T15:42:53.791Z,13.83
2018-08-07T15:45:20.641Z,15.48
2018-08-07T15:47:47.478Z,9.77
2018-08-07T15:50:14.786Z,19.20
2018-08-07T15:52:41.601Z,13.32
2018-08-07T15:55:08.465Z,10.35
2018-08-07T15:57:35.465Z,9.20
2018-08-07T16:00:02.294Z,9.40
2018-08-07T16:02:29.276Z,6.93
2018-08-07T16:04:56.095Z,7.17
2018-08-07T16:07:23.062Z,6.70
2018-08-07T16:09:49.907Z,8.40
2018-08-07T16:12:16.722Z,8.80
2018-08-07T16:14:43.575Z,7.53
2018-08-07T16:17:10.412Z,6.90
2018-08-07T16:19:37.249Z,8.20
2018-08-07T16:22:04.112Z,9.40
2018-08-07T16:24:31.248Z,7.97
2018-08-07T16:26:58.190Z,8.00
2018-08-07T16:29:25.033Z,5.13
2018-08-07T16:31:51.862Z,7.17
2018-08-07T16:34:18.752Z,12.07
2018-08-07T16:36:45.786Z,11.80
2018-08-07T16:39:12.628Z,18.30
2018-08-07T16:41:39.497Z,14.95
2018-08-07T16:44:06.285Z,16.30
2018-08-07T16:46:33.160Z,19.33
2018-08-07T16:48:59.990Z,15.60
2018-08-07T16:51:26.813Z,15.80
2018-08-07T16:53:53.630Z,13.07
2018-08-07T16:56:20.517Z,19.43
2018-08-07T16:58:47.363Z,10.13
2018-08-07T17:01:14.178Z,22.52
2018-08-07T17:03:41.031Z,18.63
2018-08-07T17:06:07.908Z,11.10
2018-08-07T17:08:34.749Z,11.95
2018-08-07T17:11:01.569Z,10.32
2018-08-07T17:13:28.393Z,11.73
2018-08-07T17:15:55.274Z,13.90
2018-08-07T17:18:22.116Z,12.20
2018-08-07T17:20:48.944Z,9.50
2018-08-07T17:23:15.773Z,9.37
2018-08-07T17:25:42.585Z,11.63
2018-08-07T17:28:09.446Z,23.13
2018-08-07T17:30:36.276Z,18.17
2018-08-07T17:33:03.103Z,14.85
2018-08-07T17:35:29.954Z,15.43
2018-08-07T17:37:56.769Z,13.20
2018-08-07T17:40:23.594Z,14.43
2018-08-07T17:42:50.431Z,7.80
2018-08-07T17:45:17.242Z,7.40
2018-08-07T17:47:44.239Z,7.47
2018-08-07T17:50:11.062Z,18.43
2018-08-07T17:52:37.885Z,38.83
2018-08-07T17:55:04.715Z,25.92
2018-08-07T17:57:31.592Z,25.03
2018-08-07T17:59:58.434Z,20.47
2018-08-07T18:02:26.026Z,17.63
2018-08-07T18:04:52.851Z,29.03
2018-08-07T18:07:19.777Z,32.63
2018-08-07T18:09:46.611Z,17.43
2018-08-07T18:12:13.442Z,13.25
2018-08-07T18:14:40.267Z,9.85
2018-08-07T18:17:07.150Z,15.00
2018-08-07T18:19:33.982Z,10.57
2018-08-07T18:22:00.803Z,15.93
2018-08-07T18:24:27.634Z,10.00
2018-08-07T18:26:54.601Z,7.43
2018-08-07T18:29:21.373Z,7.90
2018-08-07T18:31:48.183Z,8.53
2018-08-07T18:34:15.129Z,7.20
2018-08-07T18:36:42.104Z,11.25
2018-08-07T18:39:08.938Z,7.37
2018-08-07T18:41:35.816Z,9.20
2018-08-07T18:44:02.632Z,11.12
2018-08-07T18:46:29.471Z,30.45
2018-08-07T18:48:56.296Z,38.33
2018-08-07T18:51:23.178Z,20.60
2018-08-07T18:53:49.958Z,17.60
2018-08-07T18:56:16.850Z,12.40
2018-08-07T18:58:43.681Z,15.20
2018-08-07T19:01:10.512Z,15.03
2018-08-07T19:03:37.378Z,21.70
2018-08-07T19:06:04.227Z,21.37
2018-08-07T19:08:31.049Z,17.62
2018-08-07T19:10:57.895Z,17.27
2018-08-07T19:13:24.731Z,21.87
2018-08-07T19:15:51.585Z,15.90
2018-08-07T19:18:18.430Z,15.33
2018-08-07T19:20:45.276Z,28.00
2018-08-07T19:23:12.113Z,16.60
2018-08-07T19:25:38.976Z,21.37
2018-08-07T19:28:05.802Z,18.95
2018-08-07T19:30:32.626Z,12.58
2018-08-07T19:32:59.465Z,14.13
2018-08-07T19:35:26.297Z,12.50
2018-08-07T19:37:53.133Z,14.80
2018-08-07T19:40:19.963Z,11.93
2018-08-07T19:42:46.855Z,12.63
2018-08-07T19:45:13.705Z,9.47
2018-08-07T19:47:40.645Z,12.87
2018-08-07T19:50:07.528Z,13.10
2018-08-07T19:52:34.417Z,30.50
2018-08-07T19:55:01.317Z,14.20
2018-08-07T19:57:28.323Z,10.65
2018-08-07T19:59:55.430Z,11.60
2018-08-07T20:02:22.520Z,15.43
2018-08-07T20:04:49.353Z,15.60
2018-08-07T20:07:16.346Z,10.60
2018-08-07T20:09:43.172Z,8.38
2018-08-07T20:12:10.027Z,12.15
2018-08-07T20:14:36.856Z,9.80
2018-08-07T20:17:03.941Z,8.47
2018-08-07T20:19:30.734Z,7.15
2018-08-07T20:21:57.564Z,13.73
2018-08-07T20:24:24.380Z,9.57
2018-08-07T20:26:51.260Z,10.63
2018-08-07T20:29:18.083Z,9.60
2018-08-07T20:31:44.917Z,10.60
2018-08-07T20:34:11.747Z,9.47
2018-08-07T20:36:38.641Z,7.57
2018-08-07T20:39:05.461Z,7.22
2018-08-07T20:41:33.021Z,9.73
2018-08-07T20:43:59.840Z,14.43
2018-08-07T20:46:26.836Z,9.83
2018-08-07T20:48:53.654Z,7.00
2018-08-07T20:51:20.486Z,8.53
2018-08-07T20:53:47.319Z,7.23
2018-08-07T20:56:14.189Z,9.10
2018-08-07T20:58:41.022Z,8.05
2018-08-07T21:01:07.845Z,14.60
2018-08-07T21:03:34.683Z,12.00
2018-08-07T21:06:01.558Z,18.17
2018-08-07T21:08:28.381Z,8.83
2018-08-07T21:10:55.220Z,10.73
2018-08-07T21:13:22.101Z,10.53
2018-08-07T21:15:48.905Z,6.87
2018-08-07T21:18:15.737Z,12.53
2018-08-07T21:20:42.666Z,20.17
2018-08-07T21:23:09.510Z,11.73
2018-08-07T21:25:36.343Z,10.68
2018-08-07T21:28:03.161Z,11.33
2018-08-07T21:30:29.992Z,8.63
2018-08-07T21:32:56.817Z,12.63
2018-08-07T21:35:23.658Z,8.07
2018-08-07T21:37:50.576Z,8.40
2018-08-07T21:40:17.396Z,7.13
2018-08-07T21:42:44.231Z,9.37
2018-08-07T21:45:53.438Z,9.07
2018-08-07T21:48:20.262Z,5.27
2018-08-07T21:50:47.123Z,5.67
2018-08-07T21:53:13.946Z,7.80
2018-08-07T21:55:40.793Z,8.20
2018-08-07T21:58:07.636Z,9.00
2018-08-07T22:00:34.464Z,10.97
2018-08-07T22:03:01.303Z,6.40
2018-08-07T22:05:28.135Z,6.20
2018-08-07T22:07:55.025Z,6.07
2018-08-07T22:10:21.838Z,10.80
2018-08-07T22:12:48.681Z,7.00
2018-08-07T22:15:15.508Z,12.50
2018-08-07T22:17:42.399Z,10.20
2018-08-07T22:20:09.226Z,6.07
2018-08-07T22:22:36.051Z,7.40
2018-08-07T22:25:02.902Z,8.37
2018-08-07T22:27:29.793Z,6.50
2018-08-07T22:29:56.653Z,9.20
2018-08-07T22:32:23.454Z,7.40
2018-08-07T22:34:50.289Z,7.00
2018-08-07T22:37:17.150Z,6.10
2018-08-07T22:39:43.984Z,9.50
2018-08-07T22:42:10.860Z,6.47
2018-08-07T22:44:37.716Z,11.00
2018-08-07T22:47:04.723Z,9.10
2018-08-07T22:49:31.567Z,5.60
2018-08-07T22:51:58.396Z,8.90
2018-08-07T22:54:25.215Z,6.73
2018-08-07T22:56:52.094Z,5.50
2018-08-07T22:59:18.918Z,6.67
2018-08-07T23:01:46.043Z,6.40
2018-08-07T23:04:13.484Z,7.10
2018-08-07T23:06:40.489Z,5.40
2018-08-07T23:09:07.460Z,11.40
2018-08-07T23:11:35.565Z,6.73
2018-08-07T23:14:02.696Z,6.63
2018-08-07T23:16:29.705Z,7.07
2018-08-07T23:18:56.550Z,6.57
2018-08-07T23:21:23.454Z,6.20
2018-08-07T23:23:50.290Z,6.17
2018-08-07T23:26:18.188Z,7.13
2018-08-07T23:28:45.013Z,6.67
2018-08-07T23:31:11.844Z,8.30
2018-08-07T23:33:38.686Z,5.63
2018-08-07T23:36:06.692Z,6.70
2018-08-07T23:38:33.989Z,6.83
2018-08-07T23:41:00.790Z,6.33
2018-08-07T23:43:27.689Z,6.73
2018-08-07T23:45:54.676Z,10.43
2018-08-07T23:48:21.507Z,7.70
2018-08-07T23:50:48.335Z,6.67
2018-08-07T23:53:15.231Z,7.60
2018-08-07T23:55:42.050Z,5.97
2018-08-07T23:58:08.879Z,6.57
